Terminal Aerodrome Forecast
Issued by NWS Greer, SC

Home | Current Version | Previous Version | Text Only | Print | Product List | Glossary On
Versions: 1 2 3 4 5 6 7 8 9 10 11 12 13 14 15 16 17 18 19 20 21 22 23 24 25 26 27 28 29 30 31 32 33 34 35 36 37 38
000
FTUS42 KGSP 210520
TAFAVL
TAF
KAVL 210520Z 2106/2206 17004KT 3SM BR OVC003
     FM211400 16003KT P6SM OVC021
     FM211600 15003KT P6SM SCT040 OVC250
     FM212200 13006KT P6SM SCT025 OVC040
     FM220000 13005KT P6SM OVC025
     FM220300 08003KT P6SM -RA OVC019=

USA.gov is the U.S. government's official web portal to all federal, state and local government web resources and services.